createdAt,value
2022-10-07T00:01:35.207Z,8.00
2022-10-07T00:04:03.338Z,8.65
2022-10-07T00:06:31.437Z,8.32
2022-10-07T00:09:01.737Z,12.18
2022-10-07T00:11:30.809Z,8.13
2022-10-07T00:14:01.149Z,8.80
2022-10-07T00:16:31.354Z,9.45
2022-10-07T00:19:02.744Z,11.07
2022-10-07T00:21:34.322Z,12.18
2022-10-07T00:24:03.023Z,8.98
2022-10-07T00:26:33.554Z,15.90
2022-10-07T00:29:02.260Z,12.20
2022-10-07T00:31:31.684Z,10.25
2022-10-07T00:34:01.641Z,5.93
2022-10-07T00:36:32.484Z,8.73
2022-10-07T00:39:02.301Z,8.10
2022-10-07T00:41:32.849Z,12.18
2022-10-07T00:44:01.932Z,8.43
2022-10-07T00:46:34.940Z,11.75
2022-10-07T00:49:09.323Z,9.65
2022-10-07T00:51:38.418Z,9.38
2022-10-07T00:54:11.985Z,14.13
2022-10-07T00:56:41.766Z,15.60
2022-10-07T00:59:11.269Z,9.95
2022-10-07T01:01:42.256Z,8.07
2022-10-07T01:04:13.989Z,12.95
2022-10-07T01:06:43.071Z,9.30
2022-10-07T01:09:12.822Z,12.05
2022-10-07T01:11:51.931Z,11.50
2022-10-07T01:14:29.421Z,9.05
2022-10-07T01:17:03.005Z,8.05
2022-10-07T01:19:55.496Z,15.77
2022-10-07T01:22:34.296Z,7.75
2022-10-07T01:25:21.587Z,11.63
2022-10-07T01:27:54.996Z,7.53
2022-10-07T01:30:23.451Z,15.30
2022-10-07T01:32:56.877Z,11.02
2022-10-07T01:35:29.049Z,10.13
2022-10-07T01:38:01.559Z,11.95
2022-10-07T01:40:44.359Z,7.57
2022-10-07T01:43:16.921Z,15.00
2022-10-07T01:45:45.128Z,13.90
2022-10-07T01:48:13.471Z,9.93
2022-10-07T01:50:42.186Z,10.95
2022-10-07T01:53:28.174Z,11.52
2022-10-07T01:56:12.580Z,13.48
2022-10-07T01:58:56.536Z,8.00
2022-10-07T02:01:34.741Z,12.05
2022-10-07T02:04:31.184Z,12.68
2022-10-07T02:07:08.203Z,12.50
2022-10-07T02:09:41.195Z,11.52
2022-10-07T02:12:17.129Z,16.13
2022-10-07T02:14:54.720Z,15.13
2022-10-07T02:17:24.797Z,9.75
2022-10-07T02:19:57.871Z,6.65
2022-10-07T02:22:29.673Z,7.50
2022-10-07T02:24:59.998Z,12.93
2022-10-07T02:27:33.123Z,7.75
2022-10-07T02:30:06.338Z,9.98
2022-10-07T02:32:36.162Z,12.90
2022-10-07T02:35:10.146Z,10.15
2022-10-07T02:37:41.040Z,6.10
2022-10-07T02:40:12.394Z,9.50
2022-10-07T02:42:47.998Z,6.20
2022-10-07T02:45:26.684Z,9.63
2022-10-07T02:48:02.144Z,15.45
2022-10-07T02:50:38.605Z,8.25
2022-10-07T02:53:07.646Z,9.30
2022-10-07T02:55:36.870Z,14.05
2022-10-07T02:58:10.207Z,6.97
2022-10-07T03:00:44.525Z,9.73
2022-10-07T03:03:12.900Z,7.85
2022-10-07T03:05:41.468Z,5.97
2022-10-07T03:08:12.034Z,6.88
2022-10-07T03:10:40.952Z,11.20
2022-10-07T03:13:09.215Z,7.80
2022-10-07T03:15:42.406Z,8.25
2022-10-07T03:18:26.798Z,11.45
2022-10-07T03:20:55.572Z,12.00
2022-10-07T03:23:24.722Z,12.38
2022-10-07T03:25:54.142Z,8.60
2022-10-07T03:28:23.486Z,5.45
2022-10-07T03:30:51.886Z,7.90
2022-10-07T03:33:26.520Z,8.68
2022-10-07T03:35:54.732Z,7.88
2022-10-07T03:38:23.387Z,9.18
2022-10-07T03:40:53.047Z,13.13
2022-10-07T03:43:21.724Z,6.10
2022-10-07T03:45:52.432Z,8.68
2022-10-07T03:48:22.193Z,12.63
2022-10-07T03:50:51.212Z,9.20
2022-10-07T03:53:20.427Z,5.60
2022-10-07T03:55:51.732Z,5.78
2022-10-07T03:58:19.941Z,11.45
2022-10-07T04:00:48.807Z,6.90
2022-10-07T04:03:18.859Z,13.63
2022-10-07T04:06:00.520Z,7.93
2022-10-07T04:08:29.607Z,8.13
2022-10-07T04:10:58.640Z,7.68
2022-10-07T04:13:27.122Z,9.10
2022-10-07T04:15:55.787Z,16.85
2022-10-07T04:18:24.685Z,4.85
2022-10-07T04:20:53.063Z,4.22
2022-10-07T04:23:23.185Z,6.60
2022-10-07T04:25:51.350Z,8.32
2022-10-07T04:28:21.659Z,7.45
2022-10-07T04:30:51.670Z,5.95
2022-10-07T04:33:21.358Z,9.38
2022-10-07T04:35:50.396Z,9.68
2022-10-07T04:38:19.982Z,8.82
2022-10-07T04:40:51.599Z,7.97
2022-10-07T04:43:21.027Z,11.07
2022-10-07T04:45:50.570Z,9.77
2022-10-07T04:48:20.128Z,17.90
2022-10-07T04:50:48.947Z,12.20
2022-10-07T04:53:18.217Z,14.48
2022-10-07T04:55:47.832Z,14.38
2022-10-07T04:58:17.986Z,16.23
2022-10-07T05:00:48.207Z,7.93
2022-10-07T05:03:18.793Z,14.43
2022-10-07T05:05:48.172Z,15.02
2022-10-07T05:08:18.686Z,13.63
2022-10-07T05:10:46.862Z,11.70
2022-10-07T05:13:18.212Z,12.98
2022-10-07T05:15:50.763Z,9.05
2022-10-07T05:18:20.145Z,10.45
2022-10-07T05:20:48.993Z,15.30
2022-10-07T05:23:19.161Z,6.22
2022-10-07T05:25:48.059Z,13.45
2022-10-07T05:28:19.018Z,12.43
2022-10-07T05:30:47.129Z,10.75
2022-10-07T05:33:15.408Z,9.95
2022-10-07T05:35:47.654Z,12.88
2022-10-07T05:38:15.757Z,12.00
2022-10-07T05:40:44.136Z,21.55
2022-10-07T05:43:12.471Z,11.43
2022-10-07T05:45:43.407Z,16.33
2022-10-07T05:48:12.753Z,16.98
2022-10-07T05:50:41.200Z,8.60
2022-10-07T05:53:09.521Z,11.00
2022-10-07T05:55:42.097Z,25.90
2022-10-07T05:58:10.601Z,24.70
2022-10-07T06:00:42.669Z,32.53
2022-10-07T06:03:12.550Z,31.20
2022-10-07T06:05:41.084Z,27.77
2022-10-07T06:08:09.263Z,38.78
2022-10-07T06:10:54.869Z,20.67
2022-10-07T06:13:24.555Z,20.85
2022-10-07T06:15:52.946Z,28.08
2022-10-07T06:18:22.694Z,21.63
2022-10-07T06:20:57.692Z,44.95
2022-10-07T06:23:26.415Z,47.63
2022-10-07T06:25:57.052Z,45.63
2022-10-07T06:28:25.427Z,44.60
2022-10-07T06:30:54.336Z,26.77
2022-10-07T06:33:23.948Z,32.65
2022-10-07T06:35:56.724Z,41.30
2022-10-07T06:38:27.204Z,56.78
2022-10-07T06:40:59.250Z,42.05
2022-10-07T06:43:28.152Z,45.05
2022-10-07T06:46:00.331Z,57.88
2022-10-07T06:48:32.313Z,37.45
2022-10-07T06:51:03.406Z,41.88
2022-10-07T06:53:32.966Z,48.08
2022-10-07T06:56:03.553Z,35.30
2022-10-07T06:58:31.873Z,50.38
2022-10-07T07:01:00.878Z,45.75
2022-10-07T07:03:31.287Z,47.58
2022-10-07T07:06:00.179Z,40.65
2022-10-07T07:08:31.857Z,27.55
2022-10-07T07:11:05.806Z,37.17
2022-10-07T07:13:35.442Z,46.10
2022-10-07T07:16:03.743Z,34.92
2022-10-07T07:18:33.208Z,30.50
2022-10-07T07:21:03.785Z,33.42
2022-10-07T07:23:32.583Z,27.42
2022-10-07T07:26:02.064Z,26.90
2022-10-07T07:28:31.549Z,25.23
2022-10-07T07:30:59.993Z,22.75
2022-10-07T07:33:28.827Z,36.92
2022-10-07T07:35:59.118Z,27.90
2022-10-07T07:38:27.690Z,29.05
2022-10-07T07:40:55.877Z,28.25
2022-10-07T07:43:24.062Z,24.13
2022-10-07T07:45:52.565Z,26.38
2022-10-07T07:48:20.624Z,20.42
2022-10-07T07:50:48.877Z,21.35
2022-10-07T07:53:18.902Z,15.32
2022-10-07T07:55:53.894Z,18.33
2022-10-07T07:58:29.146Z,19.52
2022-10-07T08:01:02.016Z,17.98
2022-10-07T08:03:30.254Z,21.85
2022-10-07T08:06:02.099Z,21.50
2022-10-07T08:08:32.252Z,23.50
2022-10-07T08:11:08.310Z,20.90
2022-10-07T08:13:39.361Z,20.83
2022-10-07T08:16:08.684Z,20.00
2022-10-07T08:18:37.646Z,30.10
2022-10-07T08:21:07.985Z,19.85
2022-10-07T08:23:38.351Z,24.08
2022-10-07T08:26:07.791Z,17.65
2022-10-07T08:28:36.944Z,17.15
2022-10-07T08:31:07.032Z,22.15
2022-10-07T08:33:37.281Z,20.25
2022-10-07T08:36:07.530Z,24.42
2022-10-07T08:38:39.083Z,22.52
2022-10-07T08:41:23.817Z,24.60
2022-10-07T08:43:53.045Z,17.73
2022-10-07T08:46:28.043Z,15.18
2022-10-07T08:49:00.161Z,16.50
2022-10-07T08:51:39.037Z,14.73
2022-10-07T08:54:15.257Z,22.02
2022-10-07T08:56:44.038Z,14.25
2022-10-07T08:59:21.797Z,15.93
2022-10-07T09:02:04.712Z,10.95
2022-10-07T09:04:47.244Z,12.18
2022-10-07T09:07:19.005Z,21.33
2022-10-07T09:09:54.969Z,11.43
2022-10-07T09:12:30.581Z,11.57
2022-10-07T09:15:02.920Z,15.35
2022-10-07T09:17:36.695Z,14.35
2022-10-07T09:20:16.596Z,8.60
2022-10-07T09:22:53.707Z,10.10
2022-10-07T09:25:25.057Z,10.48
2022-10-07T09:27:54.679Z,17.40
2022-10-07T09:30:24.456Z,10.48
2022-10-07T09:32:55.446Z,15.23
2022-10-07T09:35:26.091Z,12.90
2022-10-07T09:38:00.292Z,18.02
2022-10-07T09:41:00.705Z,12.93
2022-10-07T09:43:30.410Z,14.30
2022-10-07T09:46:00.823Z,13.43
2022-10-07T09:48:33.722Z,12.75
2022-10-07T09:51:15.924Z,14.02
2022-10-07T09:53:59.252Z,18.98
2022-10-07T09:56:41.786Z,18.35
2022-10-07T09:59:24.768Z,17.27
2022-10-07T10:01:58.974Z,12.23
2022-10-07T10:04:32.594Z,11.70
2022-10-07T10:07:06.407Z,10.85
2022-10-07T10:09:36.048Z,11.45
2022-10-07T10:12:17.433Z,10.93
2022-10-07T10:14:49.669Z,13.68
2022-10-07T10:17:31.861Z,11.65
2022-10-07T10:20:31.982Z,14.68
2022-10-07T10:23:02.298Z,18.33
2022-10-07T10:26:01.490Z,12.40
2022-10-07T10:28:45.216Z,14.57
2022-10-07T10:31:22.665Z,11.75
2022-10-07T10:34:01.524Z,13.93
2022-10-07T10:36:36.290Z,13.02
2022-10-07T10:39:11.800Z,11.98
2022-10-07T10:41:50.820Z,13.23
2022-10-07T10:44:33.332Z,14.82
2022-10-07T10:47:12.497Z,11.63
2022-10-07T10:49:50.256Z,13.95
2022-10-07T10:52:32.668Z,7.57
2022-10-07T10:55:36.912Z,10.63
2022-10-07T10:58:21.929Z,12.57
2022-10-07T11:01:01.260Z,10.88
2022-10-07T11:03:45.412Z,13.38
2022-10-07T11:06:18.181Z,9.43
2022-10-07T11:08:47.797Z,8.48
2022-10-07T11:11:19.449Z,7.65
2022-10-07T11:13:52.850Z,7.03
2022-10-07T11:16:26.636Z,6.07
2022-10-07T11:18:59.237Z,6.25
2022-10-07T11:21:33.002Z,9.63
2022-10-07T11:24:05.550Z,8.40
2022-10-07T11:26:39.561Z,7.93
2022-10-07T11:29:20.407Z,8.90
2022-10-07T11:31:57.821Z,8.07
2022-10-07T11:34:36.453Z,6.82
2022-10-07T11:37:11.240Z,7.72
2022-10-07T11:39:40.677Z,11.40
2022-10-07T11:42:17.276Z,9.35
2022-10-07T11:44:55.019Z,5.25
2022-10-07T11:47:31.954Z,10.52
2022-10-07T11:50:07.883Z,12.20
2022-10-07T11:52:42.593Z,6.90
2022-10-07T11:55:19.078Z,6.00
2022-10-07T11:57:54.696Z,12.85
2022-10-07T12:00:28.828Z,6.38
2022-10-07T12:02:59.029Z,7.15
2022-10-07T12:05:57.709Z,8.38
2022-10-07T12:08:32.735Z,10.18
2022-10-07T12:11:43.834Z,8.32
2022-10-07T12:14:41.353Z,4.07
2022-10-07T12:17:21.199Z,4.60
2022-10-07T12:20:31.738Z,8.02
2022-10-07T12:23:42.915Z,11.93
2022-10-07T12:26:50.233Z,8.75
2022-10-07T12:29:40.370Z,7.10
2022-10-07T12:32:41.413Z,19.85
2022-10-07T12:35:48.753Z,9.18
2022-10-07T12:38:24.927Z,6.05
2022-10-07T12:41:23.332Z,8.85
2022-10-07T12:43:59.209Z,7.88
2022-10-07T12:46:32.365Z,6.13
2022-10-07T12:49:05.295Z,11.68
2022-10-07T12:51:39.508Z,9.65
2022-10-07T12:54:14.670Z,5.25
2022-10-07T12:56:46.320Z,6.55
2022-10-07T12:59:52.901Z,6.05
2022-10-07T13:03:04.204Z,9.20
2022-10-07T13:06:16.107Z,8.75
2022-10-07T13:09:27.177Z,6.55
2022-10-07T13:12:12.750Z,7.57
2022-10-07T13:14:54.367Z,12.50
2022-10-07T13:17:36.845Z,7.85
2022-10-07T13:20:20.158Z,7.90
2022-10-07T13:22:50.547Z,6.18
2022-10-07T13:25:20.935Z,7.03
2022-10-07T13:27:55.190Z,4.53
2022-10-07T13:30:38.767Z,7.63
2022-10-07T13:33:28.156Z,7.72
2022-10-07T13:36:16.199Z,6.15
2022-10-07T13:38:46.408Z,5.63
2022-10-07T13:41:22.181Z,8.82
2022-10-07T13:43:54.817Z,4.85
2022-10-07T13:46:25.642Z,5.43
2022-10-07T13:48:56.448Z,7.38
2022-10-07T13:51:30.112Z,7.57
2022-10-07T13:54:00.525Z,5.20
2022-10-07T13:56:33.820Z,11.10
2022-10-07T13:59:06.853Z,6.18
2022-10-07T14:01:39.895Z,6.87
2022-10-07T14:04:22.064Z,9.77
2022-10-07T14:07:00.352Z,22.40
2022-10-07T14:09:53.938Z,4.65
2022-10-07T14:12:26.149Z,10.80
2022-10-07T14:15:01.303Z,7.90
2022-10-07T14:17:41.151Z,9.50
2022-10-07T14:20:21.781Z,5.20
2022-10-07T14:22:53.513Z,5.25
2022-10-07T14:25:23.426Z,9.07
2022-10-07T14:28:08.001Z,8.07
2022-10-07T14:30:57.452Z,4.95
2022-10-07T14:33:48.394Z,6.13
2022-10-07T14:36:18.742Z,10.98
2022-10-07T14:38:48.675Z,4.65
2022-10-07T14:41:19.979Z,5.00
2022-10-07T14:43:50.212Z,6.15
2022-10-07T14:46:24.688Z,5.03
2022-10-07T14:48:54.278Z,5.15
2022-10-07T14:51:26.111Z,9.00
2022-10-07T14:54:02.301Z,5.07
2022-10-07T14:56:33.314Z,5.85
2022-10-07T14:59:01.893Z,5.70
2022-10-07T15:01:31.838Z,4.07
2022-10-07T15:04:00.390Z,10.73
2022-10-07T15:06:29.311Z,8.77
2022-10-07T15:08:57.485Z,8.25
2022-10-07T15:11:25.585Z,4.93
2022-10-07T15:13:53.768Z,6.05
2022-10-07T15:16:23.508Z,5.10
2022-10-07T15:18:54.176Z,9.13
2022-10-07T15:21:23.445Z,8.00
2022-10-07T15:23:53.304Z,10.27
2022-10-07T15:26:24.481Z,5.68
2022-10-07T15:28:54.465Z,6.53
2022-10-07T15:31:24.688Z,3.85
2022-10-07T15:33:58.088Z,3.28
2022-10-07T15:36:27.604Z,8.82
2022-10-07T15:38:56.348Z,5.80
2022-10-07T15:41:34.037Z,6.50
2022-10-07T15:44:03.898Z,5.22
2022-10-07T15:46:32.760Z,6.68
2022-10-07T15:49:03.952Z,6.97
2022-10-07T15:51:32.606Z,6.95
2022-10-07T15:54:01.133Z,10.00
2022-10-07T15:56:29.709Z,8.30
2022-10-07T15:58:59.067Z,9.00
2022-10-07T16:01:28.469Z,9.35
2022-10-07T16:03:56.759Z,13.13
2022-10-07T16:06:29.281Z,10.85
2022-10-07T16:09:00.444Z,12.77
2022-10-07T16:11:31.838Z,7.07
2022-10-07T16:14:02.293Z,11.23
2022-10-07T16:16:32.789Z,14.38
2022-10-07T16:19:03.887Z,9.82
2022-10-07T16:21:35.866Z,12.40
2022-10-07T16:24:06.694Z,6.97
2022-10-07T16:26:37.499Z,6.93
2022-10-07T16:29:26.078Z,13.90
2022-10-07T16:31:58.846Z,8.48
2022-10-07T16:34:29.205Z,10.20
2022-10-07T16:36:59.725Z,8.63
2022-10-07T16:39:28.213Z,19.73
2022-10-07T16:41:56.755Z,7.10
2022-10-07T16:44:24.925Z,12.15
2022-10-07T16:46:56.831Z,8.60
2022-10-07T16:49:27.944Z,7.53
2022-10-07T16:51:56.597Z,11.30
2022-10-07T16:54:28.655Z,9.82
2022-10-07T16:56:58.572Z,8.20
2022-10-07T16:59:27.348Z,16.83
2022-10-07T17:02:00.210Z,31.63
2022-10-07T17:04:28.540Z,21.23
2022-10-07T17:06:56.969Z,14.00
2022-10-07T17:09:26.676Z,10.13
2022-10-07T17:11:55.612Z,13.02
2022-10-07T17:14:24.320Z,20.15
2022-10-07T17:16:54.901Z,16.73
2022-10-07T17:19:25.018Z,10.93
2022-10-07T17:21:54.170Z,10.35
2022-10-07T17:24:23.759Z,9.60
2022-10-07T17:26:53.793Z,9.48
2022-10-07T17:29:25.889Z,9.55
2022-10-07T17:31:55.075Z,10.88
2022-10-07T17:34:23.741Z,15.88
2022-10-07T17:36:52.446Z,8.75
2022-10-07T17:39:20.634Z,11.48
2022-10-07T17:41:49.717Z,10.27
2022-10-07T17:44:21.560Z,11.95
2022-10-07T17:46:50.453Z,11.65
2022-10-07T17:49:18.916Z,11.38
2022-10-07T17:51:46.982Z,9.98
2022-10-07T17:54:15.859Z,7.25
2022-10-07T17:56:44.653Z,10.32
2022-10-07T17:59:12.796Z,7.60
2022-10-07T18:01:45.049Z,7.80
2022-10-07T18:04:19.928Z,12.75
2022-10-07T18:06:50.763Z,11.63
2022-10-07T18:09:19.557Z,10.82
2022-10-07T18:12:05.634Z,15.75
2022-10-07T18:14:53.718Z,12.00
2022-10-07T18:17:25.072Z,10.70
2022-10-07T18:19:53.526Z,10.02
2022-10-07T18:22:21.810Z,12.60
2022-10-07T18:24:51.116Z,14.63
2022-10-07T18:27:21.843Z,17.42
2022-10-07T18:29:49.993Z,14.63
2022-10-07T18:32:18.561Z,14.27
2022-10-07T18:34:48.159Z,12.43
2022-10-07T18:37:17.245Z,14.30
2022-10-07T18:39:45.735Z,19.83
2022-10-07T18:42:14.176Z,13.57
2022-10-07T18:44:42.988Z,16.05
2022-10-07T18:47:11.488Z,18.42
2022-10-07T18:49:39.631Z,22.17
2022-10-07T18:52:09.533Z,17.90
2022-10-07T18:54:37.914Z,16.77
2022-10-07T18:57:06.340Z,14.57
2022-10-07T18:59:34.612Z,17.63
2022-10-07T19:02:03.013Z,13.50
2022-10-07T19:04:31.719Z,15.70
2022-10-07T19:07:00.007Z,18.10
2022-10-07T19:09:30.590Z,14.05
2022-10-07T19:11:58.803Z,18.58
2022-10-07T19:14:26.368Z,15.70
2022-10-07T19:16:54.852Z,10.80
2022-10-07T19:19:24.725Z,14.30
2022-10-07T19:21:55.317Z,16.67
2022-10-07T19:24:44.833Z,30.77
2022-10-07T19:27:14.771Z,25.52
2022-10-07T19:29:43.021Z,20.10
2022-10-07T19:32:11.548Z,17.38
2022-10-07T19:34:39.865Z,34.88
2022-10-07T19:37:08.708Z,47.38
2022-10-07T19:39:37.293Z,22.88
2022-10-07T19:42:05.885Z,33.45
2022-10-07T19:44:38.500Z,19.73
2022-10-07T19:47:06.974Z,31.20
2022-10-07T19:49:35.145Z,26.90
2022-10-07T19:52:03.423Z,27.90
2022-10-07T19:54:36.062Z,22.23
2022-10-07T19:57:04.333Z,41.10
2022-10-07T19:59:32.661Z,30.42
2022-10-07T20:02:02.397Z,84.68
2022-10-07T20:04:31.091Z,40.30
2022-10-07T20:07:00.167Z,36.67
2022-10-07T20:09:28.671Z,29.67
2022-10-07T20:11:57.130Z,95.25
2022-10-07T20:14:25.830Z,134.20
2022-10-07T20:16:56.519Z,93.30
2022-10-07T20:19:26.652Z,103.95
2022-10-07T20:21:54.928Z,195.13
2022-10-07T20:24:23.135Z,143.07
2022-10-07T20:26:51.869Z,106.50
2022-10-07T20:29:25.156Z,62.92
2022-10-07T20:31:54.482Z,62.63
2022-10-07T20:34:26.957Z,95.38
2022-10-07T20:36:57.667Z,203.88
2022-10-07T20:39:43.624Z,256.55
2022-10-07T20:42:25.962Z,139.50
2022-10-07T20:44:55.070Z,239.98
2022-10-07T20:47:26.385Z,294.98
2022-10-07T20:49:57.247Z,181.57
2022-10-07T20:52:29.410Z,98.50
2022-10-07T20:54:58.082Z,362.95
2022-10-07T20:57:29.030Z,137.55
2022-10-07T20:59:57.517Z,136.52
2022-10-07T21:02:29.377Z,155.70
2022-10-07T21:04:59.406Z,141.00
2022-10-07T21:07:29.417Z,185.98
2022-10-07T21:09:58.294Z,181.90
2022-10-07T21:12:26.798Z,136.80
2022-10-07T21:14:56.701Z,118.68
2022-10-07T21:17:25.218Z,78.55
2022-10-07T21:19:53.586Z,92.45
2022-10-07T21:22:21.843Z,54.88
2022-10-07T21:24:51.972Z,43.63
2022-10-07T21:27:20.696Z,39.05
2022-10-07T21:29:49.191Z,54.38
2022-10-07T21:32:18.571Z,92.88
2022-10-07T21:34:47.075Z,107.72
2022-10-07T21:37:15.415Z,127.75
2022-10-07T21:39:43.737Z,198.25
2022-10-07T21:42:13.875Z,238.73
2022-10-07T21:44:44.489Z,320.63
2022-10-07T21:47:13.048Z,129.27
2022-10-07T21:49:41.381Z,126.28
2022-10-07T21:52:09.819Z,123.35
2022-10-07T21:54:38.543Z,107.45
2022-10-07T21:57:06.949Z,114.22
2022-10-07T21:59:37.031Z,213.00
2022-10-07T22:02:06.227Z,121.07
2022-10-07T22:04:34.704Z,143.23
2022-10-07T22:07:20.420Z,111.60
2022-10-07T22:09:48.679Z,112.60
2022-10-07T22:12:18.631Z,180.52
2022-10-07T22:14:48.504Z,156.25
2022-10-07T22:17:17.016Z,139.43
2022-10-07T22:19:45.376Z,147.45
2022-10-07T22:22:14.206Z,176.65
2022-10-07T22:24:42.587Z,191.18
2022-10-07T22:27:11.029Z,108.93
2022-10-07T22:29:40.063Z,63.90
2022-10-07T22:32:09.846Z,84.65
2022-10-07T22:34:55.524Z,66.68
2022-10-07T22:37:23.901Z,70.13
2022-10-07T22:39:52.300Z,88.70
2022-10-07T22:42:20.677Z,118.03
2022-10-07T22:44:49.090Z,90.32
2022-10-07T22:47:19.815Z,155.85
2022-10-07T22:49:48.689Z,147.82
2022-10-07T22:52:17.012Z,155.80
2022-10-07T22:54:45.590Z,377.90
2022-10-07T22:57:13.872Z,440.30
2022-10-07T22:59:42.276Z,491.15
2022-10-07T23:02:10.794Z,71.72
2022-10-07T23:04:40.862Z,101.80
2022-10-07T23:07:11.071Z,101.22
2022-10-07T23:09:39.364Z,111.95
2022-10-07T23:12:07.750Z,119.97
2022-10-07T23:14:36.105Z,72.40
2022-10-07T23:17:04.905Z,74.55
2022-10-07T23:19:33.214Z,310.15
2022-10-07T23:22:03.229Z,70.15
2022-10-07T23:24:31.613Z,95.65
2022-10-07T23:26:59.953Z,187.70
2022-10-07T23:29:28.617Z,61.00
2022-10-07T23:31:56.961Z,94.40
2022-10-07T23:34:25.477Z,74.45
2022-10-07T23:36:55.442Z,55.85
2022-10-07T23:39:25.886Z,86.78
2022-10-07T23:41:54.182Z,87.85
2022-10-07T23:44:24.113Z,98.20
2022-10-07T23:46:52.908Z,135.93
2022-10-07T23:49:21.443Z,172.10
2022-10-07T23:51:51.410Z,123.70
2022-10-07T23:54:20.481Z,115.80
2022-10-07T23:56:50.587Z,118.57
2022-10-07T23:59:19.622Z,200.80
